KUG003 LSGG-RPVM
Flight info
| Callsign | KUG003 |
|---|---|
| Flight time | N/A |
| Altitude | 36000 |
| Route | MEDAM1N MEDAM DCT LABIN/N0470F350 DCT DEPET DCT BATRU/N0464F370 DCT ETIDA Q7 IVGOT L744 UDROS UM859 KARDE UN644 ROLIN N644 LAGAS M747 SUBUT T923 ERLEV M11 RODAR A909 NINOP/N0471F390 A909 LEMOD N644 DI M875 JHANG A466 ASARI L509 GGC R460 CEA B465 CTG A599 LINSO/K0878S1190 A599 POU/N0472F390 DCT SMT DCT AVMUP W16 MIA B462 MASBA DCT BATAY BATAY3P |
| Aircraft | A346/H-SDE2E3FGHIJ3J4J5M1RWXY/LB1D1 |
Departure
| Time | 2026-05-07 04:28 |
|---|---|
| Airport | Geneva International Airport (LSGG) |
Arrival
| Time | N/A |
|---|---|
| Airport | Mactan Cebu International Airport (RPVM) |
| Time | Latitude | Longitude | Altitude | Speed | Heading |
|---|---|---|---|---|---|
| 2026-05-07 04:07 | 46.23538 | 6.11253 | 1428 ft | 0 kts | 135° |
| 2026-05-07 04:15 | 46.23542 | 6.11247 | 1428 ft | 2 kts | 133° |
| 2026-05-07 04:15 | 46.23552 | 6.11229 | 1428 ft | 2 kts | 116° |
| 2026-05-07 04:15 | 46.23557 | 6.11210 | 1428 ft | 2 kts | 103° |
| 2026-05-07 04:15 | 46.23559 | 6.11188 | 1428 ft | 2 kts | 91° |
| 2026-05-07 04:16 | 46.23558 | 6.11166 | 1428 ft | 2 kts | 78° |
| 2026-05-07 04:16 | 46.23554 | 6.11145 | 1428 ft | 2 kts | 66° |
| 2026-05-07 04:16 | 46.23536 | 6.11109 | 1428 ft | 2 kts | 43° |
| 2026-05-07 04:17 | 46.23533 | 6.11104 | 1428 ft | 0 kts | 43° |
| 2026-05-07 04:21 | 46.23535 | 6.11108 | 1428 ft | 1 kts | 43° |
| 2026-05-07 04:21 | 46.23550 | 6.11128 | 1428 ft | 4 kts | 42° |
| 2026-05-07 04:21 | 46.23582 | 6.11147 | 1428 ft | 5 kts | 358° |
| 2026-05-07 04:21 | 46.23626 | 6.11119 | 1428 ft | 8 kts | 322° |
| 2026-05-07 04:22 | 46.23660 | 6.11053 | 1428 ft | 8 kts | 271° |
| 2026-05-07 04:22 | 46.23628 | 6.10970 | 1428 ft | 10 kts | 229° |
| 2026-05-07 04:22 | 46.23573 | 6.10886 | 1428 ft | 12 kts | 226° |
| 2026-05-07 04:22 | 46.23512 | 6.10794 | 1428 ft | 13 kts | 226° |
| 2026-05-07 04:23 | 46.23444 | 6.10696 | 1428 ft | 14 kts | 224° |
| 2026-05-07 04:23 | 46.23368 | 6.10595 | 1428 ft | 15 kts | 224° |
| 2026-05-07 04:23 | 46.23289 | 6.10487 | 1428 ft | 15 kts | 224° |
| 2026-05-07 04:23 | 46.23214 | 6.10369 | 1428 ft | 16 kts | 225° |
| 2026-05-07 04:24 | 46.23136 | 6.10248 | 1428 ft | 16 kts | 228° |
| 2026-05-07 04:24 | 46.23055 | 6.10125 | 1428 ft | 17 kts | 226° |
| 2026-05-07 04:24 | 46.22971 | 6.10001 | 1428 ft | 17 kts | 224° |
| 2026-05-07 04:24 | 46.22883 | 6.09874 | 1428 ft | 17 kts | 226° |
| 2026-05-07 04:25 | 46.22796 | 6.09745 | 1428 ft | 17 kts | 225° |
| 2026-05-07 04:25 | 46.22709 | 6.09617 | 1428 ft | 17 kts | 225° |
| 2026-05-07 04:25 | 46.22622 | 6.09489 | 1428 ft | 17 kts | 225° |
| 2026-05-07 04:25 | 46.22554 | 6.09342 | 1428 ft | 15 kts | 250° |
| 2026-05-07 04:26 | 46.22491 | 6.09237 | 1428 ft | 13 kts | 240° |
| 2026-05-07 04:26 | 46.22496 | 6.09162 | 1428 ft | 6 kts | 329° |
| 2026-05-07 04:26 | 46.22546 | 6.09141 | 1428 ft | 8 kts | 352° |
| 2026-05-07 04:26 | 46.22607 | 6.09150 | 1428 ft | 9 kts | 32° |
| 2026-05-07 04:27 | 46.22660 | 6.09214 | 1428 ft | 10 kts | 43° |
| 2026-05-07 04:27 | 46.22719 | 6.09295 | 1428 ft | 12 kts | 46° |
| 2026-05-07 04:27 | 46.22896 | 6.09558 | 1428 ft | 73 kts | 45° |
| 2026-05-07 04:27 | 46.23423 | 6.10331 | 1428 ft | 140 kts | 45° |
| 2026-05-07 04:28 | 46.24236 | 6.11522 | 1448 ft | 189 kts | 45° |
| 2026-05-07 04:28 | 46.25140 | 6.12883 | 2129 ft | 182 kts | 46° |
| 2026-05-07 04:28 | 46.25997 | 6.14180 | 2749 ft | 183 kts | 45° |
| 2026-05-07 04:28 | 46.26904 | 6.15508 | 3353 ft | 186 kts | 44° |
| 2026-05-07 04:29 | 46.27811 | 6.16830 | 3743 ft | 193 kts | 44° |
| 2026-05-07 04:29 | 46.28791 | 6.18259 | 4022 ft | 207 kts | 44° |
| 2026-05-07 04:29 | 46.29851 | 6.19808 | 4325 ft | 223 kts | 44° |
| 2026-05-07 04:29 | 46.30949 | 6.21415 | 4618 ft | 239 kts | 44° |
| 2026-05-07 04:30 | 46.32173 | 6.23212 | 4927 ft | 259 kts | 44° |
| 2026-05-07 04:30 | 46.33466 | 6.25110 | 5343 ft | 274 kts | 44° |
| 2026-05-07 04:30 | 46.34820 | 6.27103 | 6025 ft | 280 kts | 45° |
| 2026-05-07 04:30 | 46.35900 | 6.29482 | 6744 ft | 284 kts | 74° |
| 2026-05-07 04:31 | 46.35968 | 6.32310 | 7421 ft | 286 kts | 106° |
| 2026-05-07 04:31 | 46.35060 | 6.34863 | 8080 ft | 286 kts | 135° |
| 2026-05-07 04:31 | 46.33449 | 6.36524 | 8713 ft | 285 kts | 163° |
| 2026-05-07 04:31 | 46.31504 | 6.36929 | 9340 ft | 282 kts | 191° |
| 2026-05-07 04:32 | 46.29649 | 6.36141 | 9982 ft | 280 kts | 205° |
| 2026-05-07 04:32 | 46.27831 | 6.35075 | 10518 ft | 289 kts | 205° |
| 2026-05-07 04:32 | 46.25908 | 6.33969 | 10823 ft | 305 kts | 204° |
| 2026-05-07 04:32 | 46.23845 | 6.32825 | 11125 ft | 322 kts | 204° |
| 2026-05-07 04:33 | 46.21683 | 6.31722 | 11414 ft | 340 kts | 199° |
| 2026-05-07 04:33 | 46.19316 | 6.30940 | 11697 ft | 358 kts | 192° |
| 2026-05-07 04:33 | 46.16766 | 6.30584 | 11988 ft | 376 kts | 186° |
| 2026-05-07 04:33 | 46.14133 | 6.30422 | 12485 ft | 384 kts | 185° |
| 2026-05-07 04:34 | 46.11451 | 6.30290 | 13166 ft | 387 kts | 185° |
| 2026-05-07 04:34 | 46.08710 | 6.30151 | 13843 ft | 390 kts | 185° |
| 2026-05-07 04:34 | 46.05975 | 6.30002 | 14466 ft | 394 kts | 185° |
| 2026-05-07 04:34 | 46.03361 | 6.29853 | 15044 ft | 398 kts | 185° |
| 2026-05-07 04:35 | 46.00527 | 6.29688 | 15657 ft | 402 kts | 185° |
| 2026-05-07 04:35 | 45.97780 | 6.29526 | 16236 ft | 405 kts | 185° |
| 2026-05-07 04:35 | 45.94982 | 6.29360 | 16808 ft | 409 kts | 185° |
| 2026-05-07 04:35 | 45.92178 | 6.29234 | 17359 ft | 414 kts | 181° |
| 2026-05-07 04:36 | 45.89311 | 6.29850 | 17880 ft | 424 kts | 167° |
| 2026-05-07 04:36 | 45.86588 | 6.31501 | 18404 ft | 433 kts | 152° |
| 2026-05-07 04:36 | 45.84128 | 6.33951 | 18937 ft | 438 kts | 145° |
| 2026-05-07 04:36 | 45.81727 | 6.36585 | 19440 ft | 442 kts | 144° |
| 2026-05-07 04:37 | 45.79284 | 6.39264 | 19928 ft | 445 kts | 145° |
| 2026-05-07 04:37 | 45.76799 | 6.41938 | 20418 ft | 449 kts | 145° |
| 2026-05-07 04:37 | 45.74330 | 6.44566 | 20896 ft | 452 kts | 146° |
| 2026-05-07 04:37 | 45.71816 | 6.47230 | 21366 ft | 456 kts | 146° |
| 2026-05-07 04:38 | 45.69297 | 6.49891 | 21819 ft | 459 kts | 146° |
| 2026-05-07 04:38 | 45.66742 | 6.52587 | 22272 ft | 462 kts | 146° |
| 2026-05-07 04:38 | 45.64164 | 6.55305 | 22720 ft | 466 kts | 146° |
| 2026-05-07 04:38 | 45.61572 | 6.58034 | 23161 ft | 469 kts | 146° |
| 2026-05-07 04:39 | 45.58930 | 6.60812 | 23600 ft | 472 kts | 146° |
| 2026-05-07 04:39 | 45.56289 | 6.63587 | 24027 ft | 475 kts | 146° |
| 2026-05-07 04:39 | 45.53634 | 6.66374 | 24441 ft | 478 kts | 147° |
| 2026-05-07 04:39 | 45.50960 | 6.69176 | 24846 ft | 481 kts | 147° |
| 2026-05-07 04:40 | 45.48239 | 6.72023 | 25253 ft | 483 kts | 147° |
| 2026-05-07 04:40 | 45.45524 | 6.74861 | 25634 ft | 486 kts | 147° |
| 2026-05-07 04:40 | 45.42786 | 6.77652 | 26004 ft | 489 kts | 148° |
| 2026-05-07 04:40 | 45.39993 | 6.80448 | 26369 ft | 492 kts | 148° |
| 2026-05-07 04:41 | 45.37215 | 6.83216 | 26723 ft | 495 kts | 148° |
| 2026-05-07 04:41 | 45.34366 | 6.86059 | 27076 ft | 498 kts | 148° |
| 2026-05-07 04:41 | 45.31565 | 6.88858 | 27414 ft | 501 kts | 147° |
| 2026-05-07 04:41 | 45.28928 | 6.92138 | 27705 ft | 509 kts | 132° |
| 2026-05-07 04:42 | 45.27049 | 6.96404 | 28017 ft | 514 kts | 113° |
| 2026-05-07 04:42 | 45.26143 | 7.01316 | 28439 ft | 512 kts | 94° |
| 2026-05-07 04:42 | 45.25986 | 7.06365 | 28957 ft | 509 kts | 89° |
| 2026-05-07 04:42 | 45.25937 | 7.11362 | 29437 ft | 508 kts | 89° |
| 2026-05-07 04:43 | 45.25893 | 7.16360 | 29874 ft | 508 kts | 89° |
| 2026-05-07 04:43 | 45.25834 | 7.21379 | 30299 ft | 508 kts | 89° |
| 2026-05-07 04:43 | 45.25759 | 7.26342 | 30713 ft | 507 kts | 89° |
| 2026-05-07 04:43 | 45.25670 | 7.31345 | 31112 ft | 507 kts | 89° |
| 2026-05-07 04:44 | 45.25570 | 7.36362 | 31510 ft | 507 kts | 89° |
| 2026-05-07 04:44 | 45.25463 | 7.41386 | 31900 ft | 507 kts | 89° |
| 2026-05-07 04:44 | 45.25353 | 7.46380 | 32274 ft | 507 kts | 89° |
| 2026-05-07 04:44 | 45.25238 | 7.51388 | 32638 ft | 507 kts | 89° |
| 2026-05-07 04:45 | 45.25121 | 7.56355 | 32995 ft | 507 kts | 89° |
| 2026-05-07 04:45 | 45.25001 | 7.61372 | 33352 ft | 507 kts | 89° |
| 2026-05-07 04:45 | 45.24881 | 7.66323 | 33679 ft | 507 kts | 90° |
| 2026-05-07 04:45 | 45.24757 | 7.71336 | 33987 ft | 507 kts | 90° |
| 2026-05-07 04:46 | 45.24632 | 7.76284 | 34287 ft | 507 kts | 90° |
| 2026-05-07 04:46 | 45.24503 | 7.81320 | 34562 ft | 507 kts | 90° |
| 2026-05-07 04:46 | 45.24372 | 7.86320 | 34808 ft | 509 kts | 90° |
| 2026-05-07 04:46 | 45.24240 | 7.91313 | 35041 ft | 510 kts | 90° |
| 2026-05-07 04:47 | 45.24106 | 7.96306 | 35269 ft | 511 kts | 90° |
| 2026-05-07 04:47 | 45.23967 | 8.01350 | 35496 ft | 511 kts | 90° |
| 2026-05-07 04:47 | 45.23824 | 8.06447 | 35718 ft | 512 kts | 90° |
| 2026-05-07 04:47 | 45.23681 | 8.11489 | 35912 ft | 513 kts | 90° |
| 2026-05-07 04:48 | 45.23390 | 8.21578 | 35968 ft | 515 kts | 90° |
| 2026-05-07 04:48 | 45.23087 | 8.31708 | 35970 ft | 515 kts | 90° |
| 2026-05-07 04:49 | 45.22775 | 8.41828 | 35971 ft | 515 kts | 90° |
| 2026-05-07 04:49 | 45.22454 | 8.51988 | 35971 ft | 515 kts | 90° |
| 2026-05-07 04:50 | 45.22123 | 8.62122 | 35971 ft | 515 kts | 90° |
| 2026-05-07 04:50 | 45.21787 | 8.72219 | 35969 ft | 515 kts | 90° |
| 2026-05-07 04:51 | 45.21439 | 8.82336 | 35970 ft | 515 kts | 90° |
| 2026-05-07 04:51 | 45.21081 | 8.92456 | 35969 ft | 515 kts | 90° |
| 2026-05-07 04:52 | 45.20706 | 9.02661 | 35966 ft | 518 kts | 89° |
| 2026-05-07 04:52 | 45.20325 | 9.12830 | 35958 ft | 519 kts | 89° |
| 2026-05-07 04:53 | 45.19946 | 9.22998 | 35950 ft | 520 kts | 89° |
| 2026-05-07 04:53 | 45.19554 | 9.33250 | 35946 ft | 520 kts | 89° |
| 2026-05-07 04:54 | 45.19151 | 9.43428 | 35945 ft | 520 kts | 89° |
| 2026-05-07 04:54 | 45.18733 | 9.53720 | 35944 ft | 520 kts | 89° |
| 2026-05-07 04:55 | 45.18310 | 9.63928 | 35945 ft | 520 kts | 88° |
| 2026-05-07 04:55 | 45.17880 | 9.74117 | 35938 ft | 521 kts | 89° |
| 2026-05-07 04:56 | 45.17435 | 9.84369 | 35930 ft | 521 kts | 89° |
| 2026-05-07 04:56 | 45.16983 | 9.94580 | 35917 ft | 520 kts | 89° |
| 2026-05-07 04:57 | 45.16522 | 10.04847 | 35907 ft | 521 kts | 89° |
| 2026-05-07 04:57 | 45.16051 | 10.15051 | 35898 ft | 521 kts | 89° |
| 2026-05-07 04:58 | 45.15577 | 10.25225 | 35909 ft | 520 kts | 92° |
| 2026-05-07 04:58 | 45.15380 | 10.30211 | 36324 ft | 494 kts | 93° |
| 2026-05-07 04:58 | 45.15184 | 10.34995 | 36564 ft | 476 kts | 93° |
| 2026-05-07 04:59 | 45.14977 | 10.39676 | 36825 ft | 473 kts | 94° |
| 2026-05-07 04:59 | 45.14758 | 10.44279 | 37107 ft | 470 kts | 94° |
| 2026-05-07 04:59 | 45.14523 | 10.48895 | 37409 ft | 467 kts | 94° |
| 2026-05-07 04:59 | 45.14275 | 10.53465 | 37667 ft | 465 kts | 94° |
| 2026-05-07 05:00 | 45.14014 | 10.58074 | 37563 ft | 471 kts | 94° |
| 2026-05-07 05:00 | 45.13777 | 10.62312 | 37337 ft | 472 kts | 94° |
| 2026-05-07 05:00 | 45.13577 | 10.65954 | 37142 ft | 473 kts | 95° |
| 2026-05-07 05:00 | 45.13274 | 10.71612 | 37003 ft | 472 kts | 95° |
| 2026-05-07 05:01 | 45.12763 | 10.81272 | 37004 ft | 473 kts | 95° |
| 2026-05-07 05:01 | 45.12266 | 10.90622 | 37004 ft | 473 kts | 95° |
| 2026-05-07 05:02 | 45.11771 | 10.99863 | 37005 ft | 473 kts | 95° |
| 2026-05-07 05:02 | 45.11266 | 11.09163 | 37005 ft | 473 kts | 95° |
| 2026-05-07 05:03 | 45.10748 | 11.18541 | 37005 ft | 473 kts | 95° |
| 2026-05-07 05:03 | 45.10231 | 11.27790 | 37005 ft | 473 kts | 95° |
| 2026-05-07 05:04 | 45.09707 | 11.37035 | 37005 ft | 473 kts | 95° |
| 2026-05-07 05:04 | 45.09173 | 11.46308 | 37005 ft | 473 kts | 95° |
| 2026-05-07 05:05 | 45.08633 | 11.55558 | 37005 ft | 473 kts | 95° |
| 2026-05-07 05:05 | 45.08087 | 11.64777 | 37005 ft | 473 kts | 95° |
| 2026-05-07 05:06 | 45.07540 | 11.73896 | 37004 ft | 473 kts | 95° |
| 2026-05-07 05:06 | 45.06979 | 11.83111 | 37004 ft | 473 kts | 95° |
| 2026-05-07 05:07 | 45.06410 | 11.92336 | 37004 ft | 473 kts | 95° |
| 2026-05-07 05:07 | 45.05832 | 12.01593 | 37004 ft | 473 kts | 95° |
| 2026-05-07 05:08 | 45.05244 | 12.10876 | 37005 ft | 473 kts | 95° |
| 2026-05-07 05:08 | 45.04649 | 12.20167 | 37005 ft | 473 kts | 95° |
| 2026-05-07 05:09 | 45.04044 | 12.29473 | 37005 ft | 473 kts | 95° |
| 2026-05-07 05:09 | 45.03438 | 12.38696 | 37005 ft | 473 kts | 95° |
| 2026-05-07 05:10 | 45.02819 | 12.47981 | 37005 ft | 473 kts | 95° |
| 2026-05-07 05:10 | 45.02200 | 12.57180 | 37005 ft | 473 kts | 95° |
| 2026-05-07 05:11 | 45.01570 | 12.66404 | 37005 ft | 473 kts | 96° |
| 2026-05-07 05:11 | 45.00935 | 12.75610 | 37004 ft | 473 kts | 96° |
| 2026-05-07 05:12 | 45.00290 | 12.84854 | 37004 ft | 473 kts | 96° |
| 2026-05-07 05:12 | 44.99634 | 12.94156 | 37004 ft | 473 kts | 96° |
| 2026-05-07 05:13 | 44.98975 | 13.03394 | 37005 ft | 473 kts | 96° |
| 2026-05-07 05:13 | 44.98268 | 13.12662 | 37005 ft | 473 kts | 97° |
| 2026-05-07 05:14 | 44.97398 | 13.21863 | 37005 ft | 473 kts | 97° |
| 2026-05-07 05:14 | 44.96508 | 13.31045 | 37005 ft | 473 kts | 97° |
| 2026-05-07 05:15 | 44.95614 | 13.40290 | 37005 ft | 473 kts | 97° |
| 2026-05-07 05:15 | 44.94723 | 13.49479 | 37005 ft | 473 kts | 97° |
| 2026-05-07 05:16 | 44.93822 | 13.58703 | 37006 ft | 473 kts | 97° |
| 2026-05-07 05:16 | 44.92923 | 13.67827 | 37005 ft | 473 kts | 98° |
| 2026-05-07 05:17 | 44.92016 | 13.76960 | 37004 ft | 473 kts | 98° |
| 2026-05-07 05:17 | 44.91096 | 13.86135 | 37004 ft | 473 kts | 98° |
| 2026-05-07 05:18 | 44.90165 | 13.95360 | 37004 ft | 473 kts | 98° |
| 2026-05-07 05:18 | 44.89241 | 14.04440 | 37004 ft | 473 kts | 98° |
| 2026-05-07 05:19 | 44.88300 | 14.13606 | 37004 ft | 473 kts | 98° |
| 2026-05-07 05:19 | 44.87344 | 14.22850 | 37004 ft | 473 kts | 98° |
| 2026-05-07 05:20 | 44.86383 | 14.32062 | 37004 ft | 473 kts | 98° |
| 2026-05-07 05:20 | 44.85420 | 14.41228 | 37004 ft | 473 kts | 98° |
| 2026-05-07 05:21 | 44.83960 | 14.54979 | 37004 ft | 473 kts | 98° |
| 2026-05-07 05:22 | 44.82974 | 14.64174 | 37004 ft | 473 kts | 98° |
| 2026-05-07 05:22 | 44.81994 | 14.73244 | 37005 ft | 473 kts | 99° |
| 2026-05-07 05:23 | 44.81000 | 14.82368 | 37005 ft | 473 kts | 99° |
| 2026-05-07 05:23 | 44.79997 | 14.91516 | 37005 ft | 473 kts | 99° |
| 2026-05-07 05:24 | 44.78988 | 15.00646 | 37005 ft | 473 kts | 99° |
| 2026-05-07 05:24 | 44.77970 | 15.09790 | 37011 ft | 473 kts | 99° |
| 2026-05-07 05:25 | 44.76941 | 15.18959 | 37006 ft | 473 kts | 99° |
| 2026-05-07 05:25 | 44.75908 | 15.28099 | 37005 ft | 473 kts | 99° |
| 2026-05-07 05:26 | 44.74867 | 15.37233 | 37004 ft | 473 kts | 99° |
| 2026-05-07 05:26 | 44.73822 | 15.46338 | 37004 ft | 473 kts | 99° |
| 2026-05-07 05:27 | 44.72757 | 15.55550 | 37004 ft | 473 kts | 99° |
| 2026-05-07 05:27 | 44.71700 | 15.64629 | 37004 ft | 473 kts | 99° |
| 2026-05-07 05:28 | 44.70647 | 15.73607 | 37005 ft | 473 kts | 99° |
| 2026-05-07 05:28 | 44.69563 | 15.82785 | 37005 ft | 473 kts | 99° |
| 2026-05-07 05:29 | 44.68477 | 15.91908 | 37005 ft | 473 kts | 99° |
| 2026-05-07 05:29 | 44.67360 | 16.01058 | 37005 ft | 473 kts | 100° |
| 2026-05-07 05:30 | 44.66178 | 16.10091 | 37005 ft | 473 kts | 100° |
| 2026-05-07 05:30 | 44.64977 | 16.19193 | 37004 ft | 473 kts | 100° |
| 2026-05-07 05:31 | 44.63771 | 16.28302 | 37004 ft | 473 kts | 100° |
| 2026-05-07 05:31 | 44.62564 | 16.37384 | 37004 ft | 473 kts | 100° |
| 2026-05-07 05:32 | 44.61352 | 16.46447 | 37004 ft | 473 kts | 100° |
| 2026-05-07 05:32 | 44.60135 | 16.55487 | 37004 ft | 473 kts | 100° |
| 2026-05-07 05:33 | 44.58909 | 16.64547 | 37004 ft | 473 kts | 100° |
| 2026-05-07 05:33 | 44.57679 | 16.73571 | 37005 ft | 473 kts | 101° |
| 2026-05-07 05:34 | 44.56447 | 16.82559 | 37005 ft | 473 kts | 101° |
| 2026-05-07 05:34 | 44.55198 | 16.91609 | 37005 ft | 473 kts | 101° |
| 2026-05-07 05:35 | 44.53940 | 17.00679 | 37005 ft | 473 kts | 101° |
| 2026-05-07 05:35 | 44.52675 | 17.09744 | 37005 ft | 473 kts | 101° |
| 2026-05-07 05:36 | 44.51408 | 17.18767 | 37005 ft | 473 kts | 101° |
| 2026-05-07 05:36 | 44.50133 | 17.27790 | 37005 ft | 473 kts | 101° |
| 2026-05-07 05:37 | 44.48843 | 17.36865 | 37005 ft | 473 kts | 101° |
| 2026-05-07 05:37 | 44.47551 | 17.45903 | 37005 ft | 473 kts | 101° |
| 2026-05-07 05:38 | 44.46250 | 17.54948 | 37005 ft | 473 kts | 101° |
| 2026-05-07 05:38 | 44.44946 | 17.63958 | 37005 ft | 473 kts | 101° |
| 2026-05-07 05:39 | 44.43643 | 17.72909 | 37005 ft | 473 kts | 102° |
| 2026-05-07 05:39 | 44.42319 | 17.81949 | 37004 ft | 473 kts | 102° |
| 2026-05-07 05:40 | 44.40997 | 17.90926 | 37004 ft | 473 kts | 102° |
| 2026-05-07 05:40 | 44.39668 | 17.99895 | 37004 ft | 473 kts | 102° |
| 2026-05-07 05:41 | 44.38322 | 18.08937 | 37005 ft | 473 kts | 102° |
| 2026-05-07 05:41 | 44.36974 | 18.17931 | 37005 ft | 473 kts | 102° |
| 2026-05-07 05:42 | 44.35612 | 18.26970 | 37005 ft | 473 kts | 102° |
| 2026-05-07 05:42 | 44.34255 | 18.35931 | 37005 ft | 473 kts | 102° |
| 2026-05-07 05:43 | 44.32877 | 18.44971 | 37005 ft | 473 kts | 102° |
| 2026-05-07 05:43 | 44.31499 | 18.53963 | 37005 ft | 473 kts | 102° |
| 2026-05-07 05:44 | 44.30112 | 18.62964 | 37005 ft | 473 kts | 102° |
| 2026-05-07 05:44 | 44.28718 | 18.71954 | 37005 ft | 473 kts | 102° |
| 2026-05-07 05:45 | 44.27324 | 18.80898 | 37004 ft | 473 kts | 102° |
| 2026-05-07 05:45 | 44.25921 | 18.89853 | 37004 ft | 473 kts | 102° |
| 2026-05-07 05:46 | 44.24505 | 18.98841 | 37004 ft | 473 kts | 102° |
| 2026-05-07 05:46 | 44.23081 | 19.07829 | 37005 ft | 473 kts | 102° |
| 2026-05-07 05:47 | 44.21651 | 19.16812 | 37005 ft | 473 kts | 102° |
| 2026-05-07 05:47 | 44.20216 | 19.25775 | 37005 ft | 473 kts | 102° |
| 2026-05-07 05:48 | 44.18771 | 19.34740 | 37005 ft | 473 kts | 102° |
| 2026-05-07 05:48 | 44.17377 | 19.43774 | 37005 ft | 473 kts | 101° |
| 2026-05-07 05:49 | 44.16042 | 19.52767 | 37005 ft | 473 kts | 101° |
| 2026-05-07 05:49 | 44.14698 | 19.61727 | 37005 ft | 473 kts | 101° |
| 2026-05-07 05:50 | 44.13347 | 19.70650 | 37005 ft | 473 kts | 102° |
| 2026-05-07 05:50 | 44.11986 | 19.79572 | 37004 ft | 473 kts | 102° |
| 2026-05-07 05:51 | 44.10614 | 19.88518 | 37004 ft | 473 kts | 102° |
| 2026-05-07 05:51 | 44.09230 | 19.97491 | 37004 ft | 473 kts | 102° |
| 2026-05-07 05:52 | 44.07843 | 20.06428 | 37005 ft | 473 kts | 102° |
| 2026-05-07 05:52 | 44.06441 | 20.15418 | 37005 ft | 473 kts | 102° |
| 2026-05-07 05:53 | 44.05043 | 20.24337 | 37005 ft | 473 kts | 102° |
| 2026-05-07 05:53 | 44.03646 | 20.33194 | 37005 ft | 473 kts | 102° |
| 2026-05-07 05:54 | 44.02226 | 20.42157 | 37005 ft | 473 kts | 102° |
| 2026-05-07 05:54 | 44.00802 | 20.51090 | 37005 ft | 473 kts | 102° |
| 2026-05-07 05:55 | 43.99374 | 20.59999 | 37005 ft | 473 kts | 102° |
| 2026-05-07 05:55 | 43.97942 | 20.68892 | 37005 ft | 473 kts | 103° |
| 2026-05-07 05:56 | 43.96503 | 20.77770 | 37004 ft | 473 kts | 103° |
| 2026-05-07 05:56 | 43.95051 | 20.86690 | 37004 ft | 473 kts | 103° |
| 2026-05-07 05:57 | 43.93591 | 20.95608 | 37004 ft | 473 kts | 103° |
| 2026-05-07 05:57 | 43.92123 | 21.04534 | 37004 ft | 473 kts | 103° |
| 2026-05-07 05:58 | 43.90652 | 21.13428 | 37005 ft | 473 kts | 103° |
| 2026-05-07 05:58 | 43.89183 | 21.22263 | 37005 ft | 473 kts | 103° |
| 2026-05-07 05:59 | 43.87710 | 21.31078 | 37004 ft | 473 kts | 103° |
| 2026-05-07 05:59 | 43.86221 | 21.39943 | 37004 ft | 473 kts | 103° |
| 2026-05-07 06:00 | 43.84722 | 21.48821 | 37004 ft | 473 kts | 103° |
| 2026-05-07 06:00 | 43.83212 | 21.57722 | 37004 ft | 473 kts | 103° |
| 2026-05-07 06:01 | 43.81708 | 21.66541 | 37004 ft | 473 kts | 103° |
| 2026-05-07 06:01 | 43.80200 | 21.75343 | 37005 ft | 473 kts | 103° |
| 2026-05-07 06:02 | 43.78680 | 21.84165 | 37005 ft | 473 kts | 103° |
| 2026-05-07 06:02 | 43.77146 | 21.93027 | 37005 ft | 473 kts | 103° |
| 2026-05-07 06:03 | 43.75608 | 22.01868 | 37005 ft | 473 kts | 103° |
| 2026-05-07 06:03 | 43.74060 | 22.10726 | 37005 ft | 473 kts | 103° |
| 2026-05-07 06:04 | 43.72505 | 22.19574 | 37004 ft | 473 kts | 103° |
| 2026-05-07 06:04 | 43.70955 | 22.28351 | 37004 ft | 473 kts | 103° |
| 2026-05-07 06:05 | 43.69395 | 22.37210 | 37004 ft | 473 kts | 102° |
| 2026-05-07 06:05 | 43.68276 | 22.46187 | 37004 ft | 473 kts | 96° |
| 2026-05-07 06:06 | 43.67632 | 22.55266 | 37004 ft | 473 kts | 95° |
| 2026-05-07 06:06 | 43.67019 | 22.64314 | 37004 ft | 473 kts | 95° |
| 2026-05-07 06:07 | 43.66398 | 22.73291 | 37005 ft | 473 kts | 96° |
| 2026-05-07 06:07 | 43.65760 | 22.82360 | 37005 ft | 473 kts | 96° |
| 2026-05-07 06:08 | 43.65115 | 22.91382 | 37005 ft | 473 kts | 96° |
| 2026-05-07 06:08 | 43.64458 | 23.00481 | 37005 ft | 473 kts | 96° |
| 2026-05-07 06:09 | 43.63800 | 23.09489 | 37004 ft | 473 kts | 96° |
| 2026-05-07 06:09 | 43.63130 | 23.18552 | 37004 ft | 473 kts | 96° |
| 2026-05-07 06:10 | 43.62454 | 23.27597 | 37004 ft | 473 kts | 96° |
| 2026-05-07 06:10 | 43.61773 | 23.36621 | 37004 ft | 473 kts | 96° |
| 2026-05-07 06:11 | 43.61084 | 23.45648 | 37004 ft | 473 kts | 96° |
| 2026-05-07 06:11 | 43.60384 | 23.54718 | 37004 ft | 473 kts | 96° |
| 2026-05-07 06:12 | 43.59683 | 23.63718 | 37004 ft | 473 kts | 96° |
| 2026-05-07 06:12 | 43.58976 | 23.72688 | 37005 ft | 473 kts | 96° |
| 2026-05-07 06:13 | 43.58265 | 23.81632 | 37005 ft | 473 kts | 96° |
| 2026-05-07 06:13 | 43.57537 | 23.90690 | 37005 ft | 473 kts | 96° |
| 2026-05-07 06:14 | 43.56803 | 23.99738 | 37005 ft | 473 kts | 96° |
| 2026-05-07 06:14 | 43.56065 | 24.08749 | 37004 ft | 473 kts | 96° |
| 2026-05-07 06:15 | 43.55319 | 24.17759 | 37004 ft | 473 kts | 96° |
| 2026-05-07 06:15 | 43.54563 | 24.26800 | 37004 ft | 473 kts | 96° |
| 2026-05-07 06:16 | 43.53805 | 24.35788 | 37004 ft | 473 kts | 96° |
| 2026-05-07 06:16 | 43.53037 | 24.44810 | 37004 ft | 473 kts | 96° |
| 2026-05-07 06:17 | 43.52259 | 24.53850 | 37004 ft | 473 kts | 96° |
| 2026-05-07 06:17 | 43.51480 | 24.62834 | 37004 ft | 473 kts | 96° |
| 2026-05-07 06:18 | 43.50700 | 24.71731 | 37005 ft | 473 kts | 97° |
| 2026-05-07 06:18 | 43.49914 | 24.80623 | 37005 ft | 473 kts | 97° |
| 2026-05-07 06:19 | 43.49118 | 24.89538 | 37004 ft | 473 kts | 97° |
| 2026-05-07 06:19 | 43.48303 | 24.98600 | 37004 ft | 473 kts | 97° |
| 2026-05-07 06:20 | 43.47490 | 25.07549 | 37005 ft | 473 kts | 97° |
| 2026-05-07 06:20 | 43.46669 | 25.16515 | 37005 ft | 473 kts | 97° |
| 2026-05-07 06:21 | 43.45839 | 25.25489 | 37005 ft | 473 kts | 97° |
| 2026-05-07 06:21 | 43.45003 | 25.34453 | 37005 ft | 473 kts | 97° |
| 2026-05-07 06:22 | 43.44162 | 25.43397 | 37005 ft | 473 kts | 97° |
| 2026-05-07 06:22 | 43.42880 | 25.56895 | 37005 ft | 473 kts | 97° |
| 2026-05-07 06:23 | 43.42025 | 25.65788 | 37005 ft | 473 kts | 98° |
| 2026-05-07 06:23 | 43.41159 | 25.74737 | 37004 ft | 473 kts | 98° |
| 2026-05-07 06:24 | 43.40287 | 25.83652 | 37004 ft | 473 kts | 98° |
| 2026-05-07 06:24 | 43.39408 | 25.92586 | 37004 ft | 473 kts | 98° |
| 2026-05-07 06:25 | 43.38515 | 26.01574 | 37004 ft | 473 kts | 98° |
| 2026-05-07 06:25 | 43.37618 | 26.10539 | 37005 ft | 473 kts | 98° |
| 2026-05-07 06:26 | 43.36709 | 26.19549 | 37005 ft | 473 kts | 98° |
| 2026-05-07 06:26 | 43.35798 | 26.28506 | 37005 ft | 473 kts | 98° |
| 2026-05-07 06:27 | 43.34880 | 26.37459 | 37005 ft | 473 kts | 98° |
| 2026-05-07 06:27 | 43.33955 | 26.46412 | 37005 ft | 473 kts | 98° |
| 2026-05-07 06:28 | 43.33022 | 26.55373 | 37005 ft | 473 kts | 98° |
| 2026-05-07 06:28 | 43.32088 | 26.64265 | 37005 ft | 473 kts | 98° |
| 2026-05-07 06:29 | 43.31142 | 26.73212 | 37004 ft | 473 kts | 98° |
| 2026-05-07 06:29 | 43.30196 | 26.82077 | 37004 ft | 473 kts | 98° |
| 2026-05-07 06:30 | 43.29240 | 26.90983 | 37004 ft | 473 kts | 98° |
| 2026-05-07 06:30 | 43.28268 | 26.99966 | 37004 ft | 473 kts | 98° |
| 2026-05-07 06:31 | 43.27295 | 27.08891 | 37005 ft | 473 kts | 98° |
| 2026-05-07 06:31 | 43.26309 | 27.17868 | 37005 ft | 473 kts | 98° |
| 2026-05-07 06:32 | 43.25323 | 27.26778 | 37005 ft | 473 kts | 98° |
| 2026-05-07 06:32 | 43.24330 | 27.35689 | 37005 ft | 473 kts | 98° |
| 2026-05-07 06:33 | 43.23332 | 27.44577 | 37005 ft | 473 kts | 98° |
| 2026-05-07 06:33 | 43.22320 | 27.53529 | 37005 ft | 473 kts | 98° |
| 2026-05-07 06:34 | 43.21305 | 27.62432 | 37005 ft | 473 kts | 98° |
| 2026-05-07 06:34 | 43.20291 | 27.71277 | 37005 ft | 473 kts | 99° |
| 2026-05-07 06:35 | 43.19259 | 27.80206 | 37004 ft | 473 kts | 99° |
| 2026-05-07 06:35 | 43.18225 | 27.89088 | 37004 ft | 473 kts | 99° |
| 2026-05-07 06:36 | 43.17179 | 27.98012 | 37004 ft | 473 kts | 99° |
| 2026-05-07 06:36 | 43.16128 | 28.06915 | 37005 ft | 473 kts | 99° |
| 2026-05-07 06:37 | 43.15063 | 28.15882 | 37005 ft | 473 kts | 99° |
| 2026-05-07 06:37 | 43.14000 | 28.24759 | 37005 ft | 473 kts | 99° |
| 2026-05-07 06:38 | 43.12929 | 28.33649 | 37005 ft | 473 kts | 99° |
| 2026-05-07 06:38 | 43.11845 | 28.42572 | 37005 ft | 473 kts | 99° |
| 2026-05-07 06:39 | 43.10762 | 28.51401 | 37004 ft | 473 kts | 100° |
| 2026-05-07 06:39 | 43.09324 | 28.60240 | 37006 ft | 473 kts | 103° |
| 2026-05-07 06:40 | 43.07753 | 28.68978 | 37005 ft | 473 kts | 104° |
| 2026-05-07 06:40 | 43.06176 | 28.77712 | 37004 ft | 473 kts | 104° |
| 2026-05-07 06:41 | 43.04659 | 28.86465 | 37004 ft | 473 kts | 103° |
| 2026-05-07 06:41 | 43.03185 | 28.95230 | 37004 ft | 473 kts | 103° |
| 2026-05-07 06:42 | 43.01689 | 29.04043 | 37004 ft | 473 kts | 103° |
| 2026-05-07 06:42 | 43.00191 | 29.12793 | 37005 ft | 473 kts | 103° |
| 2026-05-07 06:43 | 42.98675 | 29.21586 | 37005 ft | 473 kts | 103° |
| 2026-05-07 06:43 | 42.97167 | 29.30292 | 37005 ft | 473 kts | 103° |
| 2026-05-07 06:44 | 42.95644 | 29.39037 | 37005 ft | 473 kts | 103° |
| 2026-05-07 06:44 | 42.94109 | 29.47813 | 37005 ft | 473 kts | 103° |
| 2026-05-07 06:45 | 42.92564 | 29.56595 | 37005 ft | 473 kts | 103° |
| 2026-05-07 06:45 | 42.91024 | 29.65313 | 37006 ft | 473 kts | 104° |
| 2026-05-07 06:46 | 42.89480 | 29.74004 | 37005 ft | 473 kts | 104° |
| 2026-05-07 06:46 | 42.87922 | 29.82738 | 37005 ft | 473 kts | 104° |
| 2026-05-07 06:47 | 42.86354 | 29.91480 | 37005 ft | 473 kts | 104° |
| 2026-05-07 06:47 | 42.84797 | 30.00131 | 37005 ft | 473 kts | 104° |
| 2026-05-07 06:48 | 42.83216 | 30.08864 | 37004 ft | 473 kts | 104° |
| 2026-05-07 06:48 | 42.81634 | 30.17565 | 37004 ft | 473 kts | 104° |
| 2026-05-07 06:49 | 42.80047 | 30.26251 | 37004 ft | 473 kts | 104° |
| 2026-05-07 06:49 | 42.78450 | 30.34955 | 37004 ft | 473 kts | 104° |
| 2026-05-07 06:50 | 42.76840 | 30.43680 | 37004 ft | 473 kts | 104° |
| 2026-05-07 06:50 | 42.75219 | 30.52422 | 37004 ft | 473 kts | 104° |
| 2026-05-07 06:51 | 42.73772 | 30.61140 | 37004 ft | 473 kts | 99° |
| 2026-05-07 06:51 | 42.72825 | 30.69983 | 37005 ft | 473 kts | 98° |
| 2026-05-07 06:52 | 42.71936 | 30.78851 | 37005 ft | 473 kts | 98° |
| 2026-05-07 06:52 | 42.71037 | 30.87702 | 37005 ft | 473 kts | 98° |
| 2026-05-07 06:53 | 42.70117 | 30.96645 | 37005 ft | 473 kts | 98° |
| 2026-05-07 06:53 | 42.69199 | 31.05493 | 37004 ft | 473 kts | 98° |
| 2026-05-07 06:54 | 42.68275 | 31.14333 | 37004 ft | 473 kts | 98° |
| 2026-05-07 06:54 | 42.67343 | 31.23169 | 37004 ft | 473 kts | 98° |
| 2026-05-07 06:55 | 42.66403 | 31.32021 | 37004 ft | 473 kts | 98° |
| 2026-05-07 06:55 | 42.65453 | 31.40895 | 37004 ft | 473 kts | 98° |
| 2026-05-07 06:56 | 42.64501 | 31.49728 | 37004 ft | 473 kts | 98° |
| 2026-05-07 06:56 | 42.63542 | 31.58552 | 37004 ft | 473 kts | 98° |
| 2026-05-07 06:57 | 42.62574 | 31.67397 | 37004 ft | 473 kts | 98° |
| 2026-05-07 06:57 | 42.61601 | 31.76222 | 37005 ft | 473 kts | 98° |
| 2026-05-07 06:58 | 42.60625 | 31.84996 | 37005 ft | 473 kts | 98° |
| 2026-05-07 06:58 | 42.59632 | 31.93856 | 37005 ft | 473 kts | 98° |
| 2026-05-07 06:59 | 42.58639 | 32.02671 | 37004 ft | 473 kts | 98° |
| 2026-05-07 06:59 | 42.57661 | 32.11465 | 37005 ft | 473 kts | 98° |
| 2026-05-07 07:00 | 42.56654 | 32.20306 | 37004 ft | 473 kts | 98° |
| 2026-05-07 07:00 | 42.55638 | 32.29137 | 37004 ft | 473 kts | 98° |
| 2026-05-07 07:01 | 42.54622 | 32.37907 | 37004 ft | 473 kts | 98° |
| 2026-05-07 07:01 | 42.53592 | 32.46733 | 37004 ft | 473 kts | 98° |
| 2026-05-07 07:02 | 42.52551 | 32.55595 | 37004 ft | 473 kts | 98° |
| 2026-05-07 07:02 | 42.51512 | 32.64378 | 37004 ft | 473 kts | 98° |
| 2026-05-07 07:03 | 42.50460 | 32.73210 | 37004 ft | 473 kts | 99° |
| 2026-05-07 07:03 | 42.49404 | 32.82015 | 37004 ft | 473 kts | 99° |
| 2026-05-07 07:04 | 42.48345 | 32.90778 | 37004 ft | 473 kts | 99° |
| 2026-05-07 07:04 | 42.47268 | 32.99632 | 37004 ft | 473 kts | 99° |
| 2026-05-07 07:05 | 42.46193 | 33.08399 | 37005 ft | 473 kts | 99° |
| 2026-05-07 07:05 | 42.45112 | 33.17187 | 37005 ft | 473 kts | 99° |
| 2026-05-07 07:06 | 42.44020 | 33.25997 | 37005 ft | 473 kts | 99° |
| 2026-05-07 07:06 | 42.42924 | 33.34756 | 37005 ft | 473 kts | 99° |
| 2026-05-07 07:07 | 42.41824 | 33.43502 | 37006 ft | 473 kts | 99° |
| 2026-05-07 07:07 | 42.40720 | 33.52264 | 37005 ft | 473 kts | 99° |
| 2026-05-07 07:08 | 42.39606 | 33.61037 | 37005 ft | 473 kts | 99° |
| 2026-05-07 07:08 | 42.38479 | 33.69840 | 37005 ft | 473 kts | 100° |
| 2026-05-07 07:09 | 42.37360 | 33.78500 | 37004 ft | 473 kts | 100° |
| 2026-05-07 07:09 | 42.36216 | 33.87309 | 37004 ft | 473 kts | 100° |
| 2026-05-07 07:10 | 42.35075 | 33.96095 | 37004 ft | 473 kts | 100° |
| 2026-05-07 07:10 | 42.33934 | 34.04847 | 37005 ft | 473 kts | 100° |
| 2026-05-07 07:11 | 42.32784 | 34.13592 | 37005 ft | 473 kts | 100° |
| 2026-05-07 07:11 | 42.31631 | 34.22298 | 37005 ft | 473 kts | 100° |
| 2026-05-07 07:12 | 42.30460 | 34.31078 | 37005 ft | 473 kts | 100° |
| 2026-05-07 07:12 | 42.29288 | 34.39814 | 37005 ft | 473 kts | 100° |
| 2026-05-07 07:13 | 42.28106 | 34.48596 | 37005 ft | 473 kts | 100° |
| 2026-05-07 07:13 | 42.26921 | 34.57335 | 37005 ft | 473 kts | 100° |
| 2026-05-07 07:14 | 42.25722 | 34.66102 | 37005 ft | 473 kts | 101° |
| 2026-05-07 07:14 | 42.24533 | 34.74737 | 37004 ft | 473 kts | 101° |
| 2026-05-07 07:15 | 42.23325 | 34.83470 | 37004 ft | 473 kts | 101° |
| 2026-05-07 07:15 | 42.22107 | 34.92234 | 37004 ft | 473 kts | 101° |
| 2026-05-07 07:16 | 42.20895 | 35.00895 | 37004 ft | 473 kts | 101° |
| 2026-05-07 07:16 | 42.19665 | 35.09615 | 37005 ft | 473 kts | 101° |
| 2026-05-07 07:17 | 42.18421 | 35.18384 | 37005 ft | 473 kts | 101° |
| 2026-05-07 07:17 | 42.17180 | 35.27071 | 37005 ft | 473 kts | 101° |
| 2026-05-07 07:18 | 42.15924 | 35.35803 | 37005 ft | 473 kts | 101° |
| 2026-05-07 07:18 | 42.14673 | 35.44489 | 37005 ft | 473 kts | 101° |
| 2026-05-07 07:19 | 42.13428 | 35.53128 | 37005 ft | 473 kts | 101° |
| 2026-05-07 07:19 | 42.12166 | 35.61821 | 37005 ft | 473 kts | 101° |
| 2026-05-07 07:20 | 42.10898 | 35.70494 | 37005 ft | 473 kts | 101° |
| 2026-05-07 07:20 | 42.09625 | 35.79140 | 37004 ft | 473 kts | 101° |
| 2026-05-07 07:21 | 42.08337 | 35.87844 | 37004 ft | 473 kts | 101° |
| 2026-05-07 07:21 | 42.07052 | 35.96490 | 37004 ft | 473 kts | 101° |
| 2026-05-07 07:22 | 42.05757 | 36.05144 | 37004 ft | 473 kts | 101° |
| 2026-05-07 07:22 | 42.04449 | 36.13848 | 37005 ft | 473 kts | 101° |
| 2026-05-07 07:23 | 42.03135 | 36.22536 | 37005 ft | 473 kts | 101° |
| 2026-05-07 07:23 | 42.01823 | 36.31171 | 37005 ft | 473 kts | 101° |
| 2026-05-07 07:24 | 42.00497 | 36.39841 | 37005 ft | 473 kts | 101° |
| 2026-05-07 07:24 | 41.99160 | 36.48543 | 37005 ft | 473 kts | 101° |
| 2026-05-07 07:25 | 41.97149 | 36.61544 | 37005 ft | 473 kts | 101° |
| 2026-05-07 07:26 | 41.95797 | 36.70225 | 37005 ft | 473 kts | 102° |
| 2026-05-07 07:26 | 41.94446 | 36.78846 | 37004 ft | 473 kts | 102° |
| 2026-05-07 07:27 | 41.93086 | 36.87477 | 37004 ft | 473 kts | 102° |
| 2026-05-07 07:27 | 41.91722 | 36.96085 | 37004 ft | 473 kts | 102° |
| 2026-05-07 07:28 | 41.90638 | 37.04838 | 37004 ft | 473 kts | 96° |
| 2026-05-07 07:28 | 41.90233 | 37.13623 | 37005 ft | 473 kts | 91° |
| 2026-05-07 07:29 | 41.90111 | 37.22460 | 37005 ft | 473 kts | 91° |
| 2026-05-07 07:29 | 41.89990 | 37.31226 | 37005 ft | 473 kts | 91° |
| 2026-05-07 07:30 | 41.89852 | 37.40074 | 37004 ft | 473 kts | 91° |
| 2026-05-07 07:30 | 41.89706 | 37.48887 | 37004 ft | 473 kts | 91° |
| 2026-05-07 07:31 | 41.89552 | 37.57735 | 37004 ft | 473 kts | 91° |
| 2026-05-07 07:31 | 41.89392 | 37.66505 | 37004 ft | 473 kts | 91° |
| 2026-05-07 07:32 | 41.89224 | 37.75304 | 37005 ft | 473 kts | 91° |
| 2026-05-07 07:32 | 41.89051 | 37.84079 | 37005 ft | 473 kts | 91° |
| 2026-05-07 07:33 | 41.88869 | 37.92896 | 37005 ft | 473 kts | 91° |
| 2026-05-07 07:33 | 41.88681 | 38.01729 | 37005 ft | 473 kts | 91° |
| 2026-05-07 07:34 | 41.88486 | 38.10529 | 37004 ft | 473 kts | 91° |
| 2026-05-07 07:34 | 41.88285 | 38.19311 | 37004 ft | 473 kts | 91° |
| 2026-05-07 07:35 | 41.88076 | 38.28152 | 37004 ft | 473 kts | 91° |
| 2026-05-07 07:35 | 41.87860 | 38.37013 | 37004 ft | 473 kts | 91° |
| 2026-05-07 07:36 | 41.87639 | 38.45804 | 37004 ft | 473 kts | 91° |
| 2026-05-07 07:36 | 41.87411 | 38.54603 | 37004 ft | 473 kts | 91° |
| 2026-05-07 07:37 | 41.87175 | 38.63411 | 37004 ft | 473 kts | 91° |
| 2026-05-07 07:37 | 41.86933 | 38.72214 | 37005 ft | 473 kts | 92° |
| 2026-05-07 07:38 | 41.86769 | 38.78078 | 37005 ft | 473 kts | 92° |